Koninklijk Nederlands Meteorologisch Instituut; Ministerie van Verkeer en Waterstaat

 
Weer
Nederlandse vliegveldverwachtingen (TAF)
Luchtvaartmeteorologische informatie voor operationeel gebruik en vluchtvoorbereiding is beschikbaar op www.luchtvaartmeteo.nl, voor toelichting zie hier.
ZCZC
FC010800 EHWO     WOENSDRECHT/WOENSDRECHT   NLD   19 m.
TAF EHWO 010800Z NIL=

ZCZC
FC010800 EHVK     VOLKEL/VOLKEL   NLD   21 m.
TAF EHVK 010831Z 0109/0121 12011KT CAVOK=

ZCZC
FC010800 EHLW     LEEUWARDEN/LEEUWARDEN   NLD   1 m.
TAF EHLW 010800Z NIL=

ZCZC
FC010800 EHGR     GILZE-RIJEN/GILZE-RIJEN   NLD   14 m.
TAF EHGR 010800Z NIL=

ZCZC
FC010900 EHKD     DE KOOY/DE KOOY   NLD   1 m.
TAF EHKD 010824Z 0109/0121 10010KT CAVOK=

ZCZC
FT011100 EHAM     AMSTERDAM/SCHIPHOL   NLD   -3 m.
TAF EHAM 011046Z 0112/0218 12010KT CAVOK
    BECMG 0206/0209 16008KT
    BECMG 0210/0213 31012KT
    PROB30 TEMPO 0216/0218 18015G25KT 5000 SHRA TSRA SCT070CB=

ZCZC
FT011100 EHGG     GRONINGEN/EELDE   NLD   5 m.
TAF EHGG 011056Z 0112/0218 12010KT CAVOK
    BECMG 0116/0118 09007KT
    BECMG 0204/0206 12009KT=

ZCZC
FT011100 EHRD     ROTTERDAM/THE HAGUE AIRPORT   NLD   -5 m.
TAF EHRD 011049Z 0112/0218 12010KT CAVOK
    BECMG 0206/0209 16008KT
    BECMG 0210/0213 31012KT
    PROB30 TEMPO 0216/0218 18015G25KT 5000 SHRA TSRA SCT070CB=

ZCZC
FT011100 EHBK     MAASTRICHT/MAASTRICHT-AACHEN   NLD   114 m.
TAF EHBK 011057Z 0112/0218 11009KT CAVOK
    BECMG 0121/0123 15006KT
    BECMG 0206/0208 18008KT=

ZCZC
FT011100 EHEH     EINDHOVEN/EINDHOVEN   NLD   22 m.
TAF EHEH 011105Z 0112/0218 12010KT CAVOK
    BECMG 0215/0218 27012KT=